createdAt,value
2022-11-22T00:01:44.754Z,66.76
2022-11-22T00:03:46.481Z,67.02
2022-11-22T00:05:48.126Z,67.89
2022-11-22T00:07:49.792Z,69.92
2022-11-22T00:09:51.514Z,70.95
2022-11-22T00:11:53.131Z,70.90
2022-11-22T00:13:54.760Z,71.21
2022-11-22T00:16:01.370Z,71.57
2022-11-22T00:18:02.991Z,71.51
2022-11-22T00:20:05.909Z,70.92
2022-11-22T00:22:07.866Z,72.22
2022-11-22T00:24:09.556Z,72.83
2022-11-22T00:26:12.355Z,71.66
2022-11-22T00:28:14.041Z,71.62
2022-11-22T00:30:16.070Z,72.88
2022-11-22T00:32:17.678Z,72.95
2022-11-22T00:34:19.349Z,73.71
2022-11-22T00:36:20.954Z,73.35
2022-11-22T00:38:22.516Z,73.40
2022-11-22T00:40:24.240Z,74.05
2022-11-22T00:42:26.403Z,75.22
2022-11-22T00:44:28.222Z,75.01
2022-11-22T00:46:29.972Z,75.53
2022-11-22T00:48:31.622Z,75.19
2022-11-22T00:50:33.239Z,76.08
2022-11-22T00:52:34.853Z,76.25
2022-11-22T00:54:36.569Z,75.45
2022-11-22T00:56:38.196Z,75.39
2022-11-22T00:58:39.839Z,75.11
2022-11-22T01:00:41.803Z,75.29
2022-11-22T01:02:43.454Z,73.94
2022-11-22T01:04:45.012Z,73.49
2022-11-22T01:06:46.802Z,72.83
2022-11-22T01:08:48.546Z,72.03
2022-11-22T01:10:58.213Z,72.54
2022-11-22T01:12:59.968Z,72.19
2022-11-22T01:15:01.908Z,71.97
2022-11-22T01:17:03.800Z,71.24
2022-11-22T01:19:05.592Z,70.94
2022-11-22T01:21:07.329Z,70.11
2022-11-22T01:23:08.936Z,70.12
2022-11-22T01:25:11.322Z,69.75
2022-11-22T01:27:12.963Z,69.70
2022-11-22T01:29:15.347Z,69.63
2022-11-22T01:31:30.254Z,68.97
2022-11-22T01:33:34.742Z,70.14
2022-11-22T01:35:36.504Z,70.13
2022-11-22T01:37:38.167Z,69.50
2022-11-22T01:39:39.813Z,69.18
2022-11-22T01:41:41.451Z,69.89
2022-11-22T01:43:43.139Z,70.29
2022-11-22T01:45:50.423Z,69.92
2022-11-22T01:47:52.728Z,69.50
2022-11-22T01:49:58.135Z,69.46
2022-11-22T01:52:04.382Z,69.14
2022-11-22T01:54:12.830Z,69.32
2022-11-22T01:56:17.139Z,70.29
2022-11-22T01:58:19.645Z,69.83
2022-11-22T02:00:21.390Z,69.47
2022-11-22T02:02:23.090Z,69.55
2022-11-22T02:04:27.187Z,70.26
2022-11-22T02:06:38.914Z,70.47
2022-11-22T02:09:08.150Z,70.18
2022-11-22T02:11:11.169Z,69.73
2022-11-22T02:13:14.142Z,69.46
2022-11-22T02:15:15.715Z,69.91
2022-11-22T02:17:17.446Z,69.63
2022-11-22T02:19:43.242Z,70.09
2022-11-22T02:21:49.895Z,69.74
2022-11-22T02:24:21.876Z,69.29
2022-11-22T02:26:28.170Z,70.16
2022-11-22T02:28:31.708Z,70.27
2022-11-22T02:30:33.404Z,69.92
2022-11-22T02:32:35.125Z,69.89
2022-11-22T02:34:49.533Z,69.71
2022-11-22T02:36:53.377Z,69.66
2022-11-22T02:38:54.890Z,70.05
2022-11-22T02:40:59.516Z,69.80
2022-11-22T02:43:06.374Z,70.28
2022-11-22T02:45:08.337Z,71.11
2022-11-22T02:47:09.954Z,70.81
2022-11-22T02:49:11.567Z,70.52
2022-11-22T02:51:17.268Z,70.51
2022-11-22T02:53:18.988Z,69.88
2022-11-22T02:55:20.629Z,70.70
2022-11-22T02:57:22.267Z,69.63
2022-11-22T02:59:23.894Z,69.49
2022-11-22T03:01:25.611Z,70.12
2022-11-22T03:03:27.269Z,69.58
2022-11-22T03:05:28.859Z,70.49
2022-11-22T03:07:31.267Z,70.95
2022-11-22T03:09:33.118Z,71.00
2022-11-22T03:11:35.032Z,71.13
2022-11-22T03:13:36.668Z,70.75
2022-11-22T03:15:38.300Z,70.76
2022-11-22T03:17:39.992Z,70.23
2022-11-22T03:19:41.611Z,69.87
2022-11-22T03:21:43.615Z,69.80
2022-11-22T03:23:45.284Z,69.47
2022-11-22T03:25:46.992Z,69.78
2022-11-22T03:27:49.179Z,69.19
2022-11-22T03:29:50.939Z,69.44
2022-11-22T03:31:52.648Z,70.02
2022-11-22T03:33:54.318Z,70.05
2022-11-22T03:35:58.886Z,70.06
2022-11-22T03:38:00.508Z,70.23
2022-11-22T03:40:02.189Z,70.21
2022-11-22T03:42:03.931Z,70.94
2022-11-22T03:44:05.755Z,70.63
2022-11-22T03:46:07.489Z,70.59
2022-11-22T03:48:09.087Z,70.50
2022-11-22T03:50:10.740Z,70.61
2022-11-22T03:52:12.412Z,70.63
2022-11-22T03:54:14.184Z,71.13
2022-11-22T03:56:15.718Z,70.58
2022-11-22T03:58:17.262Z,70.22
2022-11-22T04:00:19.150Z,69.94
2022-11-22T04:02:20.834Z,70.44
2022-11-22T04:04:22.907Z,70.77
2022-11-22T04:06:24.613Z,70.92
2022-11-22T04:08:26.385Z,70.88
2022-11-22T04:10:28.020Z,71.15
2022-11-22T04:12:30.551Z,71.23
2022-11-22T04:14:51.014Z,71.52
2022-11-22T04:16:52.537Z,70.92
2022-11-22T04:18:54.163Z,71.02
2022-11-22T04:21:14.500Z,71.43
2022-11-22T04:23:20.970Z,71.24
2022-11-22T04:25:22.764Z,71.55
2022-11-22T04:27:24.418Z,71.02
2022-11-22T04:29:26.182Z,71.55
2022-11-22T04:31:46.276Z,71.45
2022-11-22T04:33:47.991Z,71.14
2022-11-22T04:35:49.810Z,71.21
2022-11-22T04:37:52.067Z,71.42
2022-11-22T04:39:53.805Z,71.63
2022-11-22T04:42:15.297Z,71.90
2022-11-22T04:44:35.579Z,71.60
2022-11-22T04:46:37.243Z,71.61
2022-11-22T04:48:39.192Z,71.81
2022-11-22T04:51:00.441Z,71.40
2022-11-22T04:53:02.024Z,71.79
2022-11-22T04:55:03.872Z,71.43
2022-11-22T04:57:05.521Z,72.19
2022-11-22T04:59:07.187Z,71.28
2022-11-22T05:01:09.108Z,71.53
2022-11-22T05:03:11.101Z,71.43
2022-11-22T05:05:13.060Z,71.82
2022-11-22T05:07:14.745Z,71.18
2022-11-22T05:09:16.734Z,71.52
2022-11-22T05:11:18.551Z,71.54
2022-11-22T05:13:22.159Z,71.52
2022-11-22T05:15:23.943Z,71.55
2022-11-22T05:17:25.570Z,71.63
2022-11-22T05:19:27.460Z,71.58
2022-11-22T05:21:30.168Z,72.38
2022-11-22T05:23:50.739Z,72.54
2022-11-22T05:25:52.366Z,72.04
2022-11-22T05:27:54.750Z,71.73
2022-11-22T05:29:56.331Z,71.50
2022-11-22T05:31:57.902Z,72.06
2022-11-22T05:34:00.041Z,71.09
2022-11-22T05:36:02.309Z,70.96
2022-11-22T05:38:03.967Z,71.50
2022-11-22T05:40:06.107Z,71.52
2022-11-22T05:42:08.021Z,70.76
2022-11-22T05:44:09.700Z,70.45
2022-11-22T05:46:24.759Z,70.40
2022-11-22T05:48:27.045Z,70.64
2022-11-22T05:50:28.657Z,70.36
2022-11-22T05:52:30.524Z,70.89
2022-11-22T05:54:32.106Z,71.10
2022-11-22T05:56:33.721Z,70.56
2022-11-22T05:58:35.841Z,70.74
2022-11-22T06:00:37.453Z,69.63
2022-11-22T06:02:39.231Z,69.76
2022-11-22T06:04:40.964Z,69.63
2022-11-22T06:06:42.605Z,69.46
2022-11-22T06:08:46.955Z,70.18
2022-11-22T06:10:48.702Z,69.42
2022-11-22T06:12:50.560Z,69.40
2022-11-22T06:14:56.244Z,69.32
2022-11-22T06:16:57.909Z,69.79
2022-11-22T06:18:59.663Z,69.55
2022-11-22T06:21:03.407Z,68.79
2022-11-22T06:23:05.340Z,69.12
2022-11-22T06:25:07.752Z,69.08
2022-11-22T06:27:09.404Z,69.52
2022-11-22T06:29:11.035Z,69.16
2022-11-22T06:31:18.092Z,69.32
2022-11-22T06:33:20.148Z,69.42
2022-11-22T06:35:21.727Z,69.36
2022-11-22T06:37:23.314Z,69.24
2022-11-22T06:39:24.921Z,69.03
2022-11-22T06:41:28.622Z,69.27
2022-11-22T06:43:31.136Z,68.59
2022-11-22T06:45:32.799Z,68.45
2022-11-22T06:47:34.455Z,68.16
2022-11-22T06:49:36.308Z,68.68
2022-11-22T06:51:37.885Z,68.29
2022-11-22T06:53:47.431Z,67.95
2022-11-22T06:55:51.871Z,68.73
2022-11-22T06:57:55.041Z,67.97
2022-11-22T06:59:56.625Z,68.20
2022-11-22T07:02:04.510Z,67.55
2022-11-22T07:04:07.900Z,66.50
2022-11-22T07:06:11.233Z,66.06
2022-11-22T07:08:14.085Z,65.31
2022-11-22T07:10:15.887Z,65.26
2022-11-22T07:12:17.986Z,66.66
2022-11-22T07:14:19.695Z,66.32
2022-11-22T07:16:21.896Z,67.02
2022-11-22T07:18:24.163Z,67.16
2022-11-22T07:20:25.747Z,66.48
2022-11-22T07:22:28.670Z,66.38
2022-11-22T07:24:30.491Z,65.97
2022-11-22T07:26:32.165Z,66.32
2022-11-22T07:28:33.801Z,66.38
2022-11-22T07:30:37.641Z,65.44
2022-11-22T07:32:47.148Z,65.69
2022-11-22T07:34:48.721Z,66.46
2022-11-22T07:36:54.320Z,67.04
2022-11-22T07:38:58.954Z,67.29
2022-11-22T07:41:01.087Z,65.92
2022-11-22T07:43:02.860Z,66.13
2022-11-22T07:45:04.990Z,66.06
2022-11-22T07:47:06.569Z,66.54
2022-11-22T07:49:13.882Z,66.20
2022-11-22T07:51:15.671Z,64.91
2022-11-22T07:53:17.593Z,65.56
2022-11-22T07:55:19.227Z,65.23
2022-11-22T07:57:20.785Z,65.92
2022-11-22T07:59:22.435Z,65.20
2022-11-22T08:01:24.207Z,64.87
2022-11-22T08:03:29.119Z,64.32
2022-11-22T08:05:31.232Z,64.56
2022-11-22T08:07:32.827Z,64.14
2022-11-22T08:09:34.494Z,64.35
2022-11-22T08:11:37.394Z,64.13
2022-11-22T08:13:39.579Z,63.47
2022-11-22T08:15:41.154Z,64.11
2022-11-22T08:17:42.868Z,63.76
2022-11-22T08:19:44.402Z,63.91
2022-11-22T08:21:46.869Z,63.99
2022-11-22T08:23:49.087Z,64.79
2022-11-22T08:25:50.694Z,64.23
2022-11-22T08:27:52.300Z,64.27
2022-11-22T08:29:53.930Z,63.89
2022-11-22T08:31:55.662Z,63.81
2022-11-22T08:33:57.375Z,63.43
2022-11-22T08:35:59.186Z,63.08
2022-11-22T08:38:00.910Z,63.55
2022-11-22T08:40:02.580Z,62.95
2022-11-22T08:42:04.241Z,62.79
2022-11-22T08:44:05.848Z,62.81
2022-11-22T08:46:07.446Z,63.18
2022-11-22T08:48:09.059Z,63.82
2022-11-22T08:50:10.736Z,64.23
2022-11-22T08:52:12.706Z,63.89
2022-11-22T08:54:15.604Z,63.71
2022-11-22T08:56:17.236Z,63.56
2022-11-22T08:58:19.260Z,63.69
2022-11-22T09:00:20.992Z,63.54
2022-11-22T09:02:23.180Z,63.34
2022-11-22T09:04:24.836Z,63.23
2022-11-22T09:08:55.333Z,64.05
2022-11-22T09:11:10.124Z,62.90
2022-11-22T09:13:11.773Z,62.89
2022-11-22T09:15:14.138Z,62.54
2022-11-22T09:17:18.070Z,63.22
2022-11-22T09:19:20.042Z,63.53
2022-11-22T09:21:21.661Z,64.32
2022-11-22T09:23:23.216Z,64.29
2022-11-22T09:25:24.826Z,63.85
2022-11-22T09:27:27.002Z,64.33
2022-11-22T09:29:28.871Z,64.28
2022-11-22T09:31:31.914Z,64.03
2022-11-22T09:33:35.098Z,63.89
2022-11-22T09:35:36.997Z,63.74
2022-11-22T09:37:38.645Z,64.40
2022-11-22T09:39:45.213Z,64.38
2022-11-22T09:42:11.623Z,65.77
2022-11-22T09:44:18.929Z,66.75
2022-11-22T09:46:29.627Z,65.78
2022-11-22T09:48:49.507Z,66.30
2022-11-22T09:51:06.466Z,66.65
2022-11-22T09:53:18.976Z,66.39
2022-11-22T09:55:45.515Z,66.33
2022-11-22T09:58:04.874Z,66.92
2022-11-22T10:00:10.989Z,66.25
2022-11-22T10:02:27.899Z,65.22
2022-11-22T10:04:35.346Z,64.38
2022-11-22T10:06:42.653Z,64.98
2022-11-22T10:09:09.507Z,64.59
2022-11-22T10:11:34.980Z,64.45
2022-11-22T10:14:00.163Z,64.11
2022-11-22T10:16:16.733Z,64.84
2022-11-22T10:18:23.112Z,65.81
2022-11-22T10:20:27.937Z,65.55
2022-11-22T10:22:30.597Z,65.79
2022-11-22T10:24:32.441Z,63.47
2022-11-22T10:26:34.679Z,63.48
2022-11-22T10:28:46.492Z,61.81
2022-11-22T10:30:55.691Z,63.34
2022-11-22T10:33:30.404Z,64.61
2022-11-22T10:36:00.662Z,63.16
2022-11-22T10:38:23.858Z,61.93
2022-11-22T10:40:41.780Z,60.71
2022-11-22T10:42:55.215Z,60.72
2022-11-22T10:45:22.193Z,60.42
2022-11-22T10:47:34.501Z,60.60
2022-11-22T10:49:54.505Z,61.00
2022-11-22T10:52:03.601Z,61.19
2022-11-22T10:54:16.419Z,62.73
2022-11-22T10:56:47.116Z,62.70
2022-11-22T10:59:17.152Z,61.88
2022-11-22T11:01:46.797Z,63.71
2022-11-22T11:03:50.361Z,63.86
2022-11-22T11:09:12.733Z,63.80
2022-11-22T11:10:59.189Z,63.09
2022-11-22T11:13:21.094Z,63.61
2022-11-22T11:15:27.682Z,64.00
2022-11-22T11:17:32.684Z,64.10
2022-11-22T11:19:38.422Z,63.77
2022-11-22T11:21:40.002Z,63.69
2022-11-22T11:23:42.251Z,63.44
2022-11-22T11:25:45.939Z,63.16
2022-11-22T11:27:47.688Z,62.95
2022-11-22T11:30:02.262Z,61.99
2022-11-22T11:32:15.741Z,63.58
2022-11-22T11:34:26.323Z,63.92
2022-11-22T11:36:28.007Z,63.82
2022-11-22T11:38:56.812Z,63.64
2022-11-22T11:40:59.299Z,63.52
2022-11-22T11:43:21.251Z,62.76
2022-11-22T11:45:25.637Z,63.09
2022-11-22T11:47:35.063Z,62.75
2022-11-22T11:49:36.631Z,63.04
2022-11-22T11:51:42.140Z,63.83
2022-11-22T11:53:53.587Z,65.00
2022-11-22T11:55:55.242Z,64.40
2022-11-22T11:57:56.956Z,63.78
2022-11-22T12:00:00.992Z,63.76
2022-11-22T12:02:05.562Z,63.80
2022-11-22T12:04:18.923Z,63.73
2022-11-22T12:06:20.545Z,63.58
2022-11-22T12:08:30.443Z,63.17
2022-11-22T12:10:37.764Z,63.01
2022-11-22T12:12:49.766Z,64.83
2022-11-22T12:15:10.672Z,64.76
2022-11-22T12:17:22.603Z,65.17
2022-11-22T12:19:50.585Z,64.90
2022-11-22T12:22:29.559Z,65.49
2022-11-22T12:24:52.610Z,65.82
2022-11-22T12:27:02.756Z,66.27
2022-11-22T12:29:05.176Z,65.89
2022-11-22T12:31:15.409Z,65.99
2022-11-22T12:33:27.511Z,66.11
2022-11-22T12:35:30.175Z,65.64
2022-11-22T12:37:36.487Z,65.57
2022-11-22T12:39:38.692Z,66.42
2022-11-22T12:41:41.937Z,66.94
2022-11-22T12:43:54.466Z,67.85
2022-11-22T12:45:59.318Z,67.30
2022-11-22T12:48:08.818Z,68.34
2022-11-22T12:50:46.905Z,69.15
2022-11-22T12:52:53.021Z,69.06
2022-11-22T12:55:12.743Z,68.79
2022-11-22T12:57:19.184Z,69.05
2022-11-22T12:59:22.074Z,68.44
2022-11-22T13:01:30.754Z,68.71
2022-11-22T13:04:00.416Z,68.43
2022-11-22T13:06:05.602Z,68.13
2022-11-22T13:08:33.094Z,68.58
2022-11-22T13:10:40.284Z,68.52
2022-11-22T13:12:42.445Z,69.87
2022-11-22T13:14:52.127Z,70.74
2022-11-22T13:16:54.114Z,70.59
2022-11-22T13:18:57.939Z,70.63
2022-11-22T13:20:59.390Z,69.29
2022-11-22T13:23:16.285Z,70.24
2022-11-22T13:25:33.373Z,70.27
2022-11-22T13:27:44.420Z,70.53
2022-11-22T13:29:46.487Z,70.16
2022-11-22T13:32:20.929Z,70.38
2022-11-22T13:34:26.172Z,71.25
2022-11-22T13:36:27.708Z,71.48
2022-11-22T13:38:29.417Z,71.61
2022-11-22T13:40:38.326Z,71.62
2022-11-22T13:42:40.072Z,72.34
2022-11-22T13:44:56.662Z,72.96
2022-11-22T13:47:24.420Z,73.78
2022-11-22T13:49:39.271Z,73.79
2022-11-22T13:51:51.292Z,73.14
2022-11-22T13:54:31.833Z,72.65
2022-11-22T13:56:36.562Z,72.74
2022-11-22T13:58:55.140Z,71.75
2022-11-22T14:00:57.344Z,71.19
2022-11-22T14:03:34.797Z,71.98
2022-11-22T14:05:41.732Z,71.94
2022-11-22T14:07:44.500Z,71.99
2022-11-22T14:09:55.955Z,72.21
2022-11-22T14:12:34.488Z,72.81
2022-11-22T14:15:02.450Z,72.64
2022-11-22T14:17:26.004Z,72.45
2022-11-22T14:19:36.099Z,72.06
2022-11-22T14:21:56.676Z,72.63
2022-11-22T14:24:10.465Z,72.92
2022-11-22T14:26:41.726Z,73.03
2022-11-22T14:29:08.028Z,72.76
2022-11-22T14:31:20.090Z,72.68
2022-11-22T14:33:24.248Z,73.62
2022-11-22T14:35:35.405Z,74.99
2022-11-22T14:37:45.137Z,74.64
2022-11-22T14:39:54.870Z,74.69
2022-11-22T14:41:56.496Z,74.27
2022-11-22T14:44:11.409Z,74.29
2022-11-22T14:46:45.174Z,74.94
2022-11-22T14:48:51.317Z,74.48
2022-11-22T14:51:08.324Z,74.72
2022-11-22T14:53:34.853Z,74.34
2022-11-22T14:55:36.559Z,74.35
2022-11-22T14:57:38.715Z,74.30
2022-11-22T14:59:40.275Z,73.87
2022-11-22T15:01:48.116Z,73.84
2022-11-22T15:09:14.905Z,73.79
2022-11-22T15:09:14.916Z,73.94
2022-11-22T15:09:45.096Z,71.76
2022-11-22T15:12:14.899Z,72.02
2022-11-22T15:14:54.109Z,71.60
2022-11-22T15:59:10.451Z,72.75
2022-11-22T16:01:19.614Z,71.88
2022-11-22T16:03:25.367Z,71.04
2022-11-22T16:06:08.281Z,71.25
2022-11-22T16:07:57.450Z,69.62
2022-11-22T16:09:59.306Z,70.10
2022-11-22T16:12:03.173Z,69.38
2022-11-22T16:14:04.835Z,70.03
2022-11-22T16:16:26.873Z,69.19
2022-11-22T16:18:28.564Z,68.52
2022-11-22T16:20:32.313Z,69.46
2022-11-22T16:22:33.937Z,68.92
2022-11-22T16:24:35.559Z,69.65
2022-11-22T16:26:37.157Z,68.90
2022-11-22T16:28:39.011Z,68.07
2022-11-22T16:30:44.447Z,68.43
2022-11-22T16:32:47.894Z,68.36
2022-11-22T16:35:03.153Z,68.02
2022-11-22T16:37:34.683Z,67.90
2022-11-22T16:39:39.327Z,68.50
2022-11-22T16:41:41.148Z,68.30
2022-11-22T16:43:42.792Z,67.92
2022-11-22T16:45:44.692Z,68.12
2022-11-22T16:47:54.568Z,67.89
2022-11-22T16:50:12.014Z,68.17
2022-11-22T16:52:14.000Z,68.41
2022-11-22T16:54:18.554Z,68.55
2022-11-22T16:56:25.270Z,68.04
2022-11-22T16:58:28.686Z,67.89
2022-11-22T17:00:30.373Z,66.43
2022-11-22T17:02:32.104Z,67.72
2022-11-22T17:04:39.483Z,67.12
2022-11-22T17:06:43.871Z,67.98
2022-11-22T17:08:47.169Z,66.88
2022-11-22T17:10:52.475Z,67.14
2022-11-22T17:12:54.041Z,66.42
2022-11-22T17:14:56.617Z,66.34
2022-11-22T17:16:58.226Z,66.32
2022-11-22T17:18:59.825Z,65.83
2022-11-22T17:21:01.499Z,66.90
2022-11-22T17:23:09.578Z,66.36
2022-11-22T17:25:12.500Z,65.74
2022-11-22T17:27:14.456Z,66.55
2022-11-22T17:29:42.886Z,65.43
2022-11-22T17:31:37.714Z,66.32
2022-11-22T17:33:39.439Z,65.40
2022-11-22T17:35:41.225Z,65.58
2022-11-22T17:37:42.894Z,65.92
2022-11-22T17:39:44.626Z,65.45
2022-11-22T17:41:49.431Z,65.82
2022-11-22T17:43:51.803Z,65.96
2022-11-22T17:45:53.381Z,65.38
2022-11-22T17:47:55.032Z,65.15
2022-11-22T17:49:56.639Z,66.07
2022-11-22T17:51:58.216Z,67.38
2022-11-22T17:53:59.806Z,65.49
2022-11-22T17:56:10.352Z,66.38
2022-11-22T17:58:12.664Z,65.79
2022-11-22T18:00:14.957Z,66.45
2022-11-22T18:02:16.616Z,65.98
2022-11-22T18:04:18.183Z,65.76
2022-11-22T18:06:23.396Z,65.47
2022-11-22T18:08:25.032Z,65.37
2022-11-22T18:10:26.689Z,65.60
2022-11-22T18:12:28.323Z,65.43
2022-11-22T18:14:30.730Z,65.87
2022-11-22T18:16:32.319Z,64.96
2022-11-22T18:20:57.792Z,65.28
2022-11-22T18:22:59.426Z,65.82
2022-11-22T18:25:01.281Z,65.48
2022-11-22T18:27:02.940Z,65.06
2022-11-22T18:31:29.799Z,65.35
2022-11-22T18:33:34.588Z,65.08
2022-11-22T18:35:37.373Z,65.60
2022-11-22T18:37:39.114Z,64.89
2022-11-22T18:39:41.147Z,65.04
2022-11-22T18:41:43.696Z,65.95
2022-11-22T18:43:45.499Z,65.95
2022-11-22T18:45:47.058Z,66.04
2022-11-22T18:47:48.977Z,65.58
2022-11-22T18:49:50.898Z,64.86
2022-11-22T18:51:52.584Z,65.07
2022-11-22T18:53:54.277Z,64.92
2022-11-22T18:55:55.861Z,65.02
2022-11-22T18:57:57.443Z,65.25
2022-11-22T18:59:59.142Z,64.29
2022-11-22T19:02:00.865Z,65.80
2022-11-22T19:04:03.147Z,65.42
2022-11-22T19:06:08.862Z,65.40
2022-11-22T19:08:10.430Z,65.66
2022-11-22T19:10:12.068Z,65.13
2022-11-22T19:12:13.972Z,65.18
2022-11-22T19:14:15.748Z,65.39
2022-11-22T19:16:22.012Z,65.38
2022-11-22T19:18:23.961Z,65.88
2022-11-22T19:20:53.672Z,66.08
2022-11-22T19:22:49.769Z,66.10
2022-11-22T19:24:51.559Z,66.16
2022-11-22T19:26:53.407Z,67.02
2022-11-22T19:28:56.285Z,67.53
2022-11-22T19:31:07.899Z,68.17
2022-11-22T19:33:09.527Z,68.13
2022-11-22T19:35:11.151Z,68.22
2022-11-22T19:37:12.807Z,67.53
2022-11-22T19:39:15.482Z,67.63
2022-11-22T19:41:19.141Z,67.56
2022-11-22T19:43:21.368Z,67.80
2022-11-22T19:45:23.249Z,67.88
2022-11-22T19:47:25.712Z,68.10
2022-11-22T19:49:27.667Z,67.54
2022-11-22T19:51:31.257Z,68.22
2022-11-22T19:53:33.320Z,67.92
2022-11-22T19:55:35.315Z,68.11
2022-11-22T19:57:37.099Z,67.36
2022-11-22T19:59:39.121Z,67.57
2022-11-22T20:01:41.635Z,67.21
2022-11-22T20:03:44.139Z,67.37
2022-11-22T20:05:45.704Z,67.77
2022-11-22T20:07:47.437Z,67.99
2022-11-22T20:09:49.102Z,67.37
2022-11-22T20:11:50.698Z,67.47
2022-11-22T20:13:52.388Z,68.42
2022-11-22T20:15:53.989Z,68.91
2022-11-22T20:17:55.567Z,69.48
2022-11-22T20:19:57.156Z,69.92
2022-11-22T20:21:58.829Z,68.47
2022-11-22T20:24:01.029Z,68.99
2022-11-22T20:26:04.346Z,69.08
2022-11-22T20:28:05.978Z,69.26
2022-11-22T20:30:08.170Z,69.48
2022-11-22T20:32:09.877Z,70.46
2022-11-22T20:34:11.727Z,70.59
2022-11-22T20:36:16.351Z,70.52
2022-11-22T20:38:17.949Z,71.04
2022-11-22T20:40:19.975Z,70.06
2022-11-22T20:42:36.951Z,69.40
2022-11-22T20:44:38.594Z,70.30
2022-11-22T20:46:40.533Z,71.09
2022-11-22T20:48:44.585Z,70.42
2022-11-22T20:50:50.971Z,70.48
2022-11-22T20:52:52.671Z,71.02
2022-11-22T20:54:54.255Z,70.57
2022-11-22T20:56:55.999Z,70.94
2022-11-22T20:58:57.625Z,71.06
2022-11-22T21:00:59.803Z,70.99
2022-11-22T21:03:01.413Z,70.37
2022-11-22T21:05:03.056Z,70.98
2022-11-22T21:07:04.908Z,71.41
2022-11-22T21:09:06.703Z,71.52
2022-11-22T21:11:15.526Z,72.02
2022-11-22T21:13:17.299Z,71.84
2022-11-22T21:15:19.197Z,71.44
2022-11-22T21:17:41.835Z,71.80
2022-11-22T21:19:42.360Z,71.29
2022-11-22T21:21:44.181Z,71.80
2022-11-22T21:23:46.937Z,71.69
2022-11-22T21:25:50.543Z,71.34
2022-11-22T21:27:52.454Z,71.10
2022-11-22T21:29:54.022Z,71.50
2022-11-22T21:31:55.631Z,71.94
2022-11-22T21:33:57.379Z,71.42
2022-11-22T21:35:59.947Z,71.32
2022-11-22T21:38:01.517Z,71.43
2022-11-22T21:40:03.213Z,70.95
2022-11-22T21:42:04.904Z,71.23
2022-11-22T21:44:06.492Z,70.55
2022-11-22T21:46:08.153Z,71.23
2022-11-22T21:48:09.834Z,70.71
2022-11-22T21:50:12.597Z,71.06
2022-11-22T21:52:14.531Z,71.19
2022-11-22T21:54:16.232Z,71.09
2022-11-22T21:56:17.843Z,71.01
2022-11-22T21:58:19.809Z,70.75
2022-11-22T22:00:21.753Z,70.35
2022-11-22T22:02:23.330Z,70.28
2022-11-22T22:04:25.140Z,69.94
2022-11-22T22:06:26.823Z,70.43
2022-11-22T22:08:29.581Z,70.62
2022-11-22T22:10:35.069Z,70.02
2022-11-22T22:12:36.772Z,70.34
2022-11-22T22:14:38.419Z,70.28
2022-11-22T22:16:40.449Z,69.35
2022-11-22T22:18:43.514Z,69.50
2022-11-22T22:20:45.450Z,69.71
2022-11-22T22:22:48.698Z,69.57
2022-11-22T22:24:50.294Z,69.97
2022-11-22T22:26:51.982Z,69.60
2022-11-22T22:28:53.616Z,70.36
2022-11-22T22:31:09.298Z,71.09
2022-11-22T22:33:10.846Z,71.01
2022-11-22T22:35:12.399Z,70.14
2022-11-22T22:37:14.199Z,70.89
2022-11-22T22:39:15.808Z,69.94
2022-11-22T22:41:17.581Z,70.87
2022-11-22T22:43:19.252Z,71.56
2022-11-22T22:45:20.882Z,72.13
2022-11-22T22:47:22.505Z,72.26
2022-11-22T22:49:24.067Z,71.59
2022-11-22T22:51:32.748Z,70.65
2022-11-22T22:53:35.348Z,70.82
2022-11-22T22:55:37.189Z,70.83
2022-11-22T22:57:38.854Z,70.39
2022-11-22T22:59:40.572Z,70.91
2022-11-22T23:01:42.301Z,71.03
2022-11-22T23:04:02.453Z,70.94
2022-11-22T23:06:07.631Z,70.69
2022-11-22T23:08:10.487Z,70.96
2022-11-22T23:10:12.068Z,70.82
2022-11-22T23:12:13.702Z,70.60
2022-11-22T23:14:17.596Z,70.94
2022-11-22T23:16:19.182Z,70.90
2022-11-22T23:18:20.767Z,70.55
2022-11-22T23:20:25.017Z,70.74
2022-11-22T23:22:26.777Z,70.75
2022-11-22T23:24:32.348Z,70.97
2022-11-22T23:26:34.088Z,70.93
2022-11-22T23:28:36.232Z,71.57
2022-11-22T23:30:37.845Z,71.71
2022-11-22T23:32:39.564Z,71.61
2022-11-22T23:34:41.202Z,71.06
2022-11-22T23:36:42.806Z,70.87
2022-11-22T23:38:45.040Z,70.95
2022-11-22T23:40:53.350Z,70.51
2022-11-22T23:42:58.450Z,71.39
2022-11-22T23:45:00.152Z,70.91
2022-11-22T23:47:01.747Z,71.24
2022-11-22T23:49:04.155Z,71.27
2022-11-22T23:51:05.827Z,71.44
2022-11-22T23:53:07.579Z,71.51
2022-11-22T23:55:09.335Z,71.69
2022-11-22T23:57:10.966Z,71.71
2022-11-22T23:59:12.613Z,71.29
